createdAt,value
2022-11-17T00:00:01.461Z,6.00
2022-11-17T00:02:28.633Z,6.00
2022-11-17T00:04:55.446Z,6.00
2022-11-17T00:07:22.283Z,6.00
2022-11-17T00:09:49.409Z,6.10
2022-11-17T00:12:35.105Z,6.00
2022-11-17T00:15:02.087Z,6.00
2022-11-17T00:17:28.912Z,6.00
2022-11-17T00:20:14.410Z,6.00
2022-11-17T00:22:41.190Z,6.00
2022-11-17T00:25:08.065Z,6.10
2022-11-17T00:27:34.935Z,6.10
2022-11-17T00:30:01.843Z,6.00
2022-11-17T00:32:47.452Z,6.00
2022-11-17T00:35:14.738Z,6.00
2022-11-17T00:38:04.508Z,6.00
2022-11-17T00:40:31.552Z,6.00
2022-11-17T00:42:58.403Z,5.90
2022-11-17T00:45:25.281Z,6.00
2022-11-17T00:47:54.434Z,5.90
2022-11-17T00:50:21.263Z,5.90
2022-11-17T00:52:48.208Z,5.90
2022-11-17T00:55:25.565Z,5.90
2022-11-17T00:57:52.574Z,5.90
2022-11-17T01:00:21.267Z,5.80
2022-11-17T01:02:49.208Z,5.90
2022-11-17T01:05:16.417Z,5.80
2022-11-17T01:07:43.260Z,5.80
2022-11-17T01:10:10.436Z,5.90
2022-11-17T01:12:37.422Z,5.90
2022-11-17T01:15:04.272Z,5.90
2022-11-17T01:17:31.048Z,5.90
2022-11-17T01:19:57.820Z,5.90
2022-11-17T01:22:26.442Z,5.90
2022-11-17T01:24:53.436Z,5.80
2022-11-17T01:27:27.063Z,5.80
2022-11-17T01:29:54.296Z,5.80
2022-11-17T01:32:23.865Z,5.80
2022-11-17T01:34:50.725Z,5.80
2022-11-17T01:37:20.808Z,5.80
2022-11-17T01:39:50.664Z,5.80
2022-11-17T01:42:22.111Z,5.80
2022-11-17T01:44:55.231Z,5.80
2022-11-17T01:47:22.151Z,5.80
2022-11-17T01:49:49.849Z,5.80
2022-11-17T01:52:16.770Z,5.90
2022-11-17T01:54:46.009Z,5.80
2022-11-17T01:57:16.632Z,5.80
2022-11-17T01:59:45.625Z,5.80
2022-11-17T02:02:13.625Z,5.80
2022-11-17T02:04:45.284Z,5.80
2022-11-17T02:07:13.297Z,5.80
2022-11-17T02:09:40.690Z,5.90
2022-11-17T02:12:09.561Z,5.90
2022-11-17T02:14:36.684Z,5.90
2022-11-17T02:17:13.099Z,5.90
2022-11-17T02:19:42.328Z,5.80
2022-11-17T02:22:09.071Z,5.70
2022-11-17T02:25:04.824Z,5.70
2022-11-17T02:27:43.289Z,5.70
2022-11-17T02:30:12.288Z,5.80
2022-11-17T02:32:54.970Z,5.80
2022-11-17T02:35:26.282Z,5.80
2022-11-17T02:38:11.493Z,5.70
2022-11-17T02:40:43.504Z,5.80
2022-11-17T02:43:31.937Z,5.70
2022-11-17T02:46:02.782Z,5.60
2022-11-17T02:48:45.535Z,5.70
2022-11-17T02:51:20.181Z,5.70
2022-11-17T02:53:48.084Z,5.60
2022-11-17T02:56:14.814Z,5.60
2022-11-17T02:58:41.734Z,5.60
2022-11-17T03:01:14.858Z,5.60
2022-11-17T03:03:47.917Z,5.60
2022-11-17T03:06:51.555Z,5.50
2022-11-17T03:09:37.187Z,5.50
2022-11-17T03:12:04.036Z,5.60
2022-11-17T03:14:43.920Z,5.60
2022-11-17T03:17:24.833Z,5.50
2022-11-17T03:19:57.844Z,5.50
2022-11-17T03:22:32.618Z,5.50
2022-11-17T03:25:01.954Z,5.50
2022-11-17T03:27:34.265Z,5.50
2022-11-17T03:30:04.360Z,5.50
2022-11-17T03:32:33.089Z,5.50
2022-11-17T03:35:02.199Z,5.50
2022-11-17T03:37:31.401Z,5.50
2022-11-17T03:40:01.500Z,5.40
2022-11-17T03:42:29.493Z,5.40
2022-11-17T03:45:04.238Z,5.40
2022-11-17T03:47:32.268Z,5.30
2022-11-17T03:50:08.496Z,5.30
2022-11-17T03:52:36.033Z,5.30
2022-11-17T03:55:02.973Z,5.30
2022-11-17T03:57:48.627Z,5.30
2022-11-17T04:00:16.629Z,5.30
2022-11-17T04:02:44.417Z,5.20
2022-11-17T04:05:11.844Z,5.10
2022-11-17T04:07:42.625Z,5.20
2022-11-17T04:10:10.847Z,5.20
2022-11-17T04:12:56.237Z,5.20
2022-11-17T04:15:52.648Z,5.20
2022-11-17T04:18:20.102Z,5.20
2022-11-17T04:20:50.724Z,5.30
2022-11-17T04:23:17.745Z,5.20
2022-11-17T04:26:07.585Z,5.30
2022-11-17T04:28:38.485Z,5.20
2022-11-17T04:31:08.436Z,5.20
2022-11-17T04:33:35.685Z,5.10
2022-11-17T04:36:03.307Z,5.20
2022-11-17T04:38:30.167Z,5.10
2022-11-17T04:41:25.982Z,5.10
2022-11-17T04:43:52.851Z,5.10
2022-11-17T04:46:20.109Z,5.10
2022-11-17T04:48:47.656Z,5.10
2022-11-17T04:51:15.481Z,5.20
2022-11-17T04:53:43.090Z,5.10
2022-11-17T04:56:10.404Z,5.10
2022-11-17T04:58:37.182Z,5.10
2022-11-17T05:01:13.019Z,5.00
2022-11-17T05:03:50.417Z,4.90
2022-11-17T05:06:18.482Z,4.90
2022-11-17T05:08:45.595Z,5.00
2022-11-17T05:11:31.731Z,4.90
2022-11-17T05:13:59.335Z,4.90
2022-11-17T05:16:45.241Z,5.00
2022-11-17T05:19:13.760Z,5.00
2022-11-17T05:21:40.769Z,5.00
2022-11-17T05:24:07.994Z,5.00
2022-11-17T05:26:36.123Z,5.00
2022-11-17T05:29:04.062Z,5.00
2022-11-17T05:31:31.360Z,5.00
2022-11-17T05:33:58.372Z,4.90
2022-11-17T05:36:25.771Z,5.00
2022-11-17T05:38:52.988Z,4.90
2022-11-17T05:41:20.145Z,5.00
2022-11-17T05:43:47.104Z,4.90
2022-11-17T05:46:13.942Z,5.00
2022-11-17T05:48:40.658Z,5.00
2022-11-17T05:51:07.504Z,4.90
2022-11-17T05:53:34.532Z,4.90
2022-11-17T05:56:04.586Z,4.90
2022-11-17T05:58:33.684Z,4.90
2022-11-17T06:01:00.577Z,4.90
2022-11-17T06:03:29.771Z,4.90
2022-11-17T06:05:56.567Z,4.90
2022-11-17T06:08:23.396Z,5.00
2022-11-17T06:10:50.329Z,4.90
2022-11-17T06:13:17.309Z,4.90
2022-11-17T06:15:44.115Z,4.90
2022-11-17T06:18:14.596Z,4.90
2022-11-17T06:20:43.262Z,4.90
2022-11-17T06:23:11.020Z,4.80
2022-11-17T06:25:39.136Z,4.80
2022-11-17T06:28:07.519Z,4.80
2022-11-17T06:30:34.961Z,4.80
2022-11-17T06:33:02.517Z,4.80
2022-11-17T06:35:36.220Z,4.90
2022-11-17T06:38:29.196Z,4.80
2022-11-17T06:40:56.086Z,4.80
2022-11-17T06:43:23.109Z,4.90
2022-11-17T06:45:50.565Z,4.90
2022-11-17T06:48:18.230Z,4.80
2022-11-17T06:50:48.252Z,4.90
2022-11-17T06:53:15.137Z,4.80
2022-11-17T06:55:41.938Z,4.80
2022-11-17T06:58:11.600Z,4.80
2022-11-17T07:00:38.498Z,4.80
2022-11-17T07:03:06.310Z,4.80
2022-11-17T07:05:34.274Z,4.80
2022-11-17T07:08:02.755Z,4.80
2022-11-17T07:10:30.270Z,4.80
2022-11-17T07:12:57.193Z,4.70
2022-11-17T07:15:24.108Z,4.80
2022-11-17T07:17:51.518Z,4.80
2022-11-17T07:20:19.155Z,4.80
2022-11-17T07:22:46.268Z,4.80
2022-11-17T07:25:14.573Z,4.80
2022-11-17T07:27:43.945Z,4.70
2022-11-17T07:30:11.043Z,4.70
2022-11-17T07:32:37.907Z,4.70
2022-11-17T07:35:05.985Z,4.70
2022-11-17T07:37:33.606Z,4.70
2022-11-17T07:40:00.774Z,4.70
2022-11-17T07:42:27.704Z,4.70
2022-11-17T07:44:54.562Z,4.70
2022-11-17T07:47:21.514Z,4.70
2022-11-17T07:49:49.513Z,4.70
2022-11-17T07:52:16.359Z,4.70
2022-11-17T07:54:43.324Z,4.70
2022-11-17T07:57:10.454Z,4.70
2022-11-17T07:59:38.554Z,4.70
2022-11-17T08:02:05.761Z,4.70
2022-11-17T08:04:32.670Z,4.80
2022-11-17T08:06:59.861Z,4.70
2022-11-17T08:09:27.304Z,4.70
2022-11-17T08:11:54.480Z,4.70
2022-11-17T08:14:21.608Z,4.70
2022-11-17T08:16:50.123Z,4.70
2022-11-17T08:19:17.787Z,4.70
2022-11-17T08:21:44.827Z,4.70
2022-11-17T08:24:12.247Z,4.80
2022-11-17T08:26:39.286Z,4.80
2022-11-17T08:29:06.400Z,4.80
2022-11-17T08:31:34.124Z,4.80
2022-11-17T08:34:04.387Z,4.80
2022-11-17T08:36:31.769Z,4.80
2022-11-17T08:38:59.031Z,4.80
2022-11-17T08:41:26.805Z,4.80
2022-11-17T08:43:53.970Z,4.80
2022-11-17T08:46:21.316Z,4.80
2022-11-17T08:48:52.207Z,4.80
2022-11-17T08:51:22.938Z,4.80
2022-11-17T08:53:49.892Z,4.80
2022-11-17T08:56:17.477Z,4.80
2022-11-17T08:58:45.604Z,4.80
2022-11-17T09:01:15.524Z,4.80
2022-11-17T09:03:44.417Z,4.80
2022-11-17T09:06:12.533Z,4.80
2022-11-17T09:08:56.390Z,4.90
2022-11-17T09:11:27.866Z,4.80
2022-11-17T09:13:55.526Z,4.80
2022-11-17T09:16:35.746Z,4.90
2022-11-17T09:19:03.266Z,4.80
2022-11-17T09:21:31.469Z,4.90
2022-11-17T09:23:58.548Z,4.90
2022-11-17T09:26:25.651Z,4.90
2022-11-17T09:28:52.733Z,4.90
2022-11-17T09:31:23.543Z,4.90
2022-11-17T09:33:50.965Z,4.90
2022-11-17T09:36:18.225Z,4.90
2022-11-17T09:38:45.526Z,4.90
2022-11-17T09:41:15.680Z,4.90
2022-11-17T09:43:52.256Z,4.90
2022-11-17T09:46:23.726Z,4.90
2022-11-17T09:49:23.204Z,4.90
2022-11-17T09:51:50.807Z,4.90
2022-11-17T09:54:29.126Z,5.00
2022-11-17T09:56:56.611Z,5.00
2022-11-17T09:59:25.872Z,4.90
2022-11-17T10:01:52.985Z,4.90
2022-11-17T10:04:20.170Z,4.90
2022-11-17T10:06:49.314Z,4.90
2022-11-17T10:09:40.597Z,4.90
2022-11-17T10:12:19.095Z,5.00
2022-11-17T10:14:49.556Z,5.00
2022-11-17T10:17:16.494Z,5.00
2022-11-17T10:19:45.214Z,5.00
2022-11-17T10:22:27.129Z,5.10
2022-11-17T10:24:58.722Z,5.00
2022-11-17T10:27:30.258Z,5.00
2022-11-17T10:30:16.206Z,5.00
2022-11-17T10:32:56.696Z,5.00
2022-11-17T10:35:28.352Z,5.00
2022-11-17T10:37:57.764Z,5.10
2022-11-17T10:40:26.422Z,5.10
2022-11-17T10:42:58.068Z,5.10
2022-11-17T10:45:25.093Z,5.10
2022-11-17T10:47:52.224Z,5.10
2022-11-17T10:50:27.496Z,5.10
2022-11-17T10:52:55.755Z,5.10
2022-11-17T10:55:31.613Z,5.10
2022-11-17T10:58:02.401Z,5.10
2022-11-17T11:00:31.491Z,5.00
2022-11-17T11:03:09.979Z,5.10
2022-11-17T11:05:54.102Z,5.00
2022-11-17T11:08:25.679Z,5.00
2022-11-17T11:10:54.290Z,5.00
2022-11-17T11:13:24.428Z,5.00
2022-11-17T11:15:53.677Z,5.10
2022-11-17T11:18:20.863Z,5.10
2022-11-17T11:20:57.281Z,5.00
2022-11-17T11:23:42.747Z,5.10
2022-11-17T11:26:09.689Z,5.00
2022-11-17T11:28:47.146Z,5.00
2022-11-17T11:31:24.980Z,5.00
2022-11-17T11:33:56.915Z,5.10
2022-11-17T11:36:29.964Z,5.10
2022-11-17T11:39:04.064Z,5.10
2022-11-17T11:41:49.957Z,5.10
2022-11-17T11:44:31.426Z,5.20
2022-11-17T11:47:04.476Z,5.20
2022-11-17T11:49:43.714Z,5.20
2022-11-17T11:52:12.142Z,5.10
2022-11-17T11:54:50.602Z,5.10
2022-11-17T11:57:22.118Z,5.10
2022-11-17T11:59:59.500Z,5.10
2022-11-17T12:02:47.545Z,5.10
2022-11-17T12:05:23.634Z,5.10
2022-11-17T12:07:53.637Z,5.20
2022-11-17T12:10:20.610Z,5.20
2022-11-17T12:12:48.050Z,5.20
2022-11-17T12:15:18.146Z,5.10
2022-11-17T12:17:57.006Z,5.10
2022-11-17T12:20:40.842Z,5.10
2022-11-17T12:23:19.979Z,5.10
2022-11-17T12:25:53.464Z,5.10
2022-11-17T12:28:27.399Z,5.10
2022-11-17T12:30:56.024Z,5.10
2022-11-17T12:33:42.918Z,5.10
2022-11-17T12:36:30.895Z,5.10
2022-11-17T12:39:07.176Z,5.10
2022-11-17T12:41:49.755Z,5.10
2022-11-17T12:44:32.217Z,5.00
2022-11-17T12:47:19.358Z,5.10
2022-11-17T12:50:05.365Z,5.00
2022-11-17T12:52:32.321Z,5.00
2022-11-17T12:55:04.663Z,5.10
2022-11-17T12:57:33.813Z,5.10
2022-11-17T13:03:35.932Z,5.20
2022-11-17T13:06:37.494Z,5.20
2022-11-17T13:09:06.546Z,5.10
2022-11-17T13:11:36.546Z,5.10
2022-11-17T13:14:11.392Z,5.10
2022-11-17T13:16:44.879Z,5.00
2022-11-17T13:19:32.823Z,5.00
2022-11-17T13:22:01.464Z,5.00
2022-11-17T13:28:28.544Z,5.00
2022-11-17T13:30:56.416Z,5.10
2022-11-17T13:33:28.041Z,5.00
2022-11-17T13:36:14.681Z,5.00
2022-11-17T13:38:47.145Z,5.00
2022-11-17T13:41:14.605Z,5.00
2022-11-17T13:43:41.661Z,5.00
2022-11-17T13:46:08.560Z,5.00
2022-11-17T13:48:36.704Z,4.90
2022-11-17T13:51:22.865Z,4.90
2022-11-17T13:53:55.001Z,5.00
2022-11-17T13:56:21.993Z,5.00
2022-11-17T13:58:49.923Z,5.00
2022-11-17T14:01:22.657Z,4.90
2022-11-17T14:03:50.016Z,4.90
2022-11-17T14:06:17.165Z,4.90
2022-11-17T14:09:04.451Z,4.90
2022-11-17T14:11:31.648Z,4.90
2022-11-17T14:13:59.088Z,4.90
2022-11-17T14:16:27.635Z,4.90
2022-11-17T14:18:55.577Z,4.90
2022-11-17T14:21:22.679Z,4.90
2022-11-17T14:23:49.581Z,4.80
2022-11-17T14:26:21.085Z,4.90
2022-11-17T14:28:49.391Z,4.90
2022-11-17T14:31:16.797Z,4.80
2022-11-17T14:33:44.695Z,4.80
2022-11-17T14:36:13.575Z,4.80
2022-11-17T14:44:07.006Z,4.90
2022-11-17T14:46:38.902Z,5.00
2022-11-17T14:49:06.311Z,4.90
2022-11-17T14:51:33.845Z,4.90
2022-11-17T14:54:00.834Z,4.80
2022-11-17T14:56:27.803Z,4.80
2022-11-17T14:58:56.734Z,4.80
2022-11-17T15:01:25.933Z,4.80
2022-11-17T15:03:53.233Z,4.80
2022-11-17T15:06:20.681Z,4.80
2022-11-17T15:08:48.156Z,4.80
2022-11-17T15:11:17.070Z,4.80
2022-11-17T15:13:44.428Z,4.80
2022-11-17T15:16:11.473Z,4.80
2022-11-17T15:18:38.850Z,4.70
2022-11-17T15:21:10.368Z,4.80
2022-11-17T15:23:38.184Z,4.70
2022-11-17T15:26:05.931Z,4.80
2022-11-17T15:28:35.260Z,4.70
2022-11-17T15:31:14.063Z,4.70
2022-11-17T15:33:46.721Z,4.60
2022-11-17T15:36:14.617Z,4.70
2022-11-17T15:38:41.657Z,4.70
2022-11-17T15:41:09.660Z,4.70
2022-11-17T15:43:38.104Z,4.70
2022-11-17T15:46:05.254Z,4.70
2022-11-17T15:48:32.977Z,4.70
2022-11-17T15:51:01.262Z,4.70
2022-11-17T15:53:32.286Z,4.70
2022-11-17T15:56:03.117Z,4.70
2022-11-17T15:58:30.241Z,4.70
2022-11-17T16:01:10.453Z,4.70
2022-11-17T16:03:40.190Z,4.70
2022-11-17T16:06:11.485Z,4.70
2022-11-17T16:08:39.382Z,4.70
2022-11-17T16:11:11.618Z,4.60
2022-11-17T16:13:41.904Z,4.70
2022-11-17T16:16:12.452Z,4.70
2022-11-17T16:18:40.713Z,4.70
2022-11-17T16:21:10.406Z,4.60
2022-11-17T16:23:47.653Z,4.70
2022-11-17T16:26:17.584Z,4.60
2022-11-17T16:28:48.426Z,4.60
2022-11-17T16:31:23.100Z,4.60
2022-11-17T16:33:54.375Z,4.60
2022-11-17T16:36:35.838Z,4.60
2022-11-17T16:39:17.366Z,4.50
2022-11-17T16:48:55.214Z,4.60
2022-11-17T16:51:23.074Z,4.60
2022-11-17T16:54:12.845Z,4.60
2022-11-17T16:56:41.241Z,4.60
2022-11-17T16:59:09.677Z,4.60
2022-11-17T17:01:37.791Z,4.60
2022-11-17T17:04:14.339Z,4.50
2022-11-17T17:06:46.655Z,4.50
2022-11-17T17:09:14.545Z,4.50
2022-11-17T17:11:42.368Z,4.40
2022-11-17T17:14:12.890Z,4.50
2022-11-17T17:16:40.310Z,4.50
2022-11-17T17:19:10.180Z,4.60
2022-11-17T17:21:37.809Z,4.60
2022-11-17T17:24:05.457Z,4.60
2022-11-17T17:26:33.068Z,4.50
2022-11-17T17:29:00.825Z,4.60
2022-11-17T17:31:32.474Z,4.50
2022-11-17T17:34:02.532Z,4.50
2022-11-17T17:36:30.110Z,4.50
2022-11-17T17:38:57.885Z,4.40
2022-11-17T17:41:26.980Z,4.40
2022-11-17T17:43:56.479Z,4.40
2022-11-17T17:46:23.880Z,4.40
2022-11-17T17:48:50.731Z,4.40
2022-11-17T17:51:19.009Z,4.50
2022-11-17T17:53:50.090Z,4.50
2022-11-17T17:56:18.603Z,4.50
2022-11-17T17:58:46.949Z,4.50
2022-11-17T18:01:18.344Z,4.50
2022-11-17T18:03:46.431Z,4.50
2022-11-17T18:06:13.901Z,4.50
2022-11-17T18:08:40.944Z,4.60
2022-11-17T18:11:10.317Z,4.60
2022-11-17T18:13:39.172Z,4.60
2022-11-17T18:16:06.805Z,4.60
2022-11-17T18:18:34.072Z,4.60
2022-11-17T18:21:02.794Z,4.60
2022-11-17T18:23:30.515Z,4.60
2022-11-17T18:25:58.050Z,4.60
2022-11-17T18:28:25.476Z,4.60
2022-11-17T18:30:52.426Z,4.60
2022-11-17T18:33:19.808Z,4.60
2022-11-17T18:35:46.768Z,4.50
2022-11-17T18:38:16.735Z,4.60
2022-11-17T18:40:46.673Z,4.60
2022-11-17T18:43:14.273Z,4.50
2022-11-17T18:45:41.372Z,4.50
2022-11-17T18:48:08.277Z,4.40
2022-11-17T18:50:47.567Z,4.40
2022-11-17T18:53:23.274Z,4.40
2022-11-17T18:55:50.608Z,4.40
2022-11-17T18:58:18.775Z,4.50
2022-11-17T19:00:46.067Z,4.50
2022-11-17T19:03:14.128Z,4.50
2022-11-17T19:05:42.336Z,4.50
2022-11-17T19:08:09.370Z,4.40
2022-11-17T19:10:36.198Z,4.50
2022-11-17T19:13:04.888Z,4.40
2022-11-17T19:18:55.272Z,4.50
2022-11-17T19:21:26.776Z,4.50
2022-11-17T19:23:54.893Z,4.50
2022-11-17T19:26:22.927Z,4.50
2022-11-17T19:28:50.100Z,4.40
2022-11-17T19:31:21.154Z,4.40
2022-11-17T19:33:50.594Z,4.40
2022-11-17T19:36:22.900Z,4.40
2022-11-17T19:39:09.246Z,4.40
2022-11-17T19:41:44.214Z,4.40
2022-11-17T19:44:12.640Z,4.40
2022-11-17T19:46:39.960Z,4.40
2022-11-17T19:49:19.933Z,4.30
2022-11-17T19:51:47.395Z,4.30
2022-11-17T19:54:17.027Z,4.30
2022-11-17T19:56:45.227Z,4.30
2022-11-17T19:59:16.076Z,4.30
2022-11-17T20:01:45.643Z,4.30
2022-11-17T20:04:15.028Z,4.30
2022-11-17T20:06:43.176Z,4.40
2022-11-17T20:09:14.445Z,4.40
2022-11-17T20:11:42.643Z,4.30
2022-11-17T20:14:09.942Z,4.30
2022-11-17T20:16:38.861Z,4.30
2022-11-17T20:19:06.024Z,4.40
2022-11-17T20:21:33.711Z,4.30
2022-11-17T20:24:01.945Z,4.20
2022-11-17T20:26:30.722Z,4.20
2022-11-17T20:28:58.790Z,4.10
2022-11-17T20:31:28.991Z,4.10
2022-11-17T20:33:57.583Z,4.20
2022-11-17T20:36:27.130Z,4.20
2022-11-17T20:38:55.504Z,4.10
2022-11-17T20:41:23.455Z,4.10
2022-11-17T20:43:51.463Z,4.20
2022-11-17T20:46:18.509Z,4.20
2022-11-17T20:48:45.800Z,4.10
2022-11-17T20:51:48.538Z,4.10
2022-11-17T20:54:15.658Z,4.00
2022-11-17T20:56:42.807Z,4.00
2022-11-17T20:59:09.762Z,3.90
2022-11-17T21:01:37.174Z,3.90
2022-11-17T21:04:04.546Z,3.90
2022-11-17T21:06:31.737Z,3.90
2022-11-17T21:24:54.849Z,4.00
2022-11-17T21:27:22.981Z,4.00
2022-11-17T21:29:50.277Z,3.90
2022-11-17T21:32:17.415Z,3.90
2022-11-17T21:34:49.551Z,3.90
2022-11-17T21:37:17.505Z,3.90
2022-11-17T21:39:47.294Z,3.90
2022-11-17T21:42:14.148Z,3.90
2022-11-17T21:44:41.490Z,3.80
2022-11-17T21:47:10.703Z,3.80
2022-11-17T21:49:37.571Z,3.70
2022-11-17T21:52:04.563Z,3.70
2022-11-17T21:54:32.901Z,3.60
2022-11-17T21:56:59.981Z,3.60
2022-11-17T21:59:32.230Z,3.60
2022-11-17T22:02:00.332Z,3.70
2022-11-17T22:04:27.200Z,3.70
2022-11-17T22:06:55.112Z,3.70
2022-11-17T22:09:22.039Z,3.70
2022-11-17T22:11:50.213Z,3.70
2022-11-17T22:14:19.368Z,3.70
2022-11-17T22:16:51.974Z,3.60
2022-11-17T22:19:20.101Z,3.50
2022-11-17T22:21:48.145Z,3.60
2022-11-17T22:24:15.083Z,3.60
2022-11-17T22:26:43.366Z,3.60
2022-11-17T22:29:12.030Z,3.70
2022-11-17T22:31:39.100Z,3.70
2022-11-17T22:34:05.957Z,3.70
2022-11-17T22:36:35.332Z,3.70
2022-11-17T22:39:02.524Z,3.70
2022-11-17T22:41:29.587Z,3.70
2022-11-17T22:43:56.988Z,3.70
2022-11-17T22:46:25.443Z,3.70
2022-11-17T22:48:52.651Z,3.50
2022-11-17T22:51:38.281Z,3.60
2022-11-17T22:54:06.304Z,3.50
2022-11-17T22:56:33.759Z,3.60
2022-11-17T22:59:01.190Z,3.60
2022-11-17T23:01:28.433Z,3.60
2022-11-17T23:03:55.497Z,3.60
2022-11-17T23:06:27.249Z,3.60
2022-11-17T23:08:54.997Z,3.70
2022-11-17T23:11:36.656Z,3.70
2022-11-17T23:14:05.601Z,3.70
2022-11-17T23:16:33.287Z,3.60
2022-11-17T23:19:26.196Z,3.60
2022-11-17T23:21:55.214Z,3.60
2022-11-17T23:24:25.624Z,3.60
2022-11-17T23:26:52.680Z,3.60
2022-11-17T23:29:19.807Z,3.50
2022-11-17T23:31:47.417Z,3.60
2022-11-17T23:34:50.531Z,3.60
2022-11-17T23:37:19.897Z,3.60
2022-11-17T23:39:52.942Z,3.70
2022-11-17T23:42:19.777Z,3.70
2022-11-17T23:45:15.761Z,3.60
2022-11-17T23:48:22.818Z,3.60
2022-11-17T23:51:03.915Z,3.60
2022-11-17T23:53:50.675Z,3.60
2022-11-17T23:56:25.071Z,3.60
